sensor_id;sensor_type;location;lat;lon;timestamp;temperature;humidity
22065;DHT22;11197;53.110;8.468;2023-03-14T00:01:58;11.40;99.90
22065;DHT22;11197;53.110;8.468;2023-03-14T00:04:24;11.30;99.90
22065;DHT22;11197;53.110;8.468;2023-03-14T00:06:50;11.30;99.90
22065;DHT22;11197;53.110;8.468;2023-03-14T00:09:16;11.30;99.90
22065;DHT22;11197;53.110;8.468;2023-03-14T00:11:43;11.30;99.90
22065;DHT22;11197;53.110;8.468;2023-03-14T00:14:08;11.30;99.90
22065;DHT22;11197;53.110;8.468;2023-03-14T00:16:34;11.20;99.90
22065;DHT22;11197;53.110;8.468;2023-03-14T00:19:01;11.20;99.90
22065;DHT22;11197;53.110;8.468;2023-03-14T00:21:27;11.20;99.90
22065;DHT22;11197;53.110;8.468;2023-03-14T00:23:53;11.20;99.90
22065;DHT22;11197;53.110;8.468;2023-03-14T00:26:20;11.20;99.90
22065;DHT22;11197;53.110;8.468;2023-03-14T00:28:50;11.20;99.90
22065;DHT22;11197;53.110;8.468;2023-03-14T00:31:16;11.20;99.90
22065;DHT22;11197;53.110;8.468;2023-03-14T00:33:43;11.10;99.90
22065;DHT22;11197;53.110;8.468;2023-03-14T00:36:13;11.10;99.90
22065;DHT22;11197;53.110;8.468;2023-03-14T00:38:40;11.10;99.90
22065;DHT22;11197;53.110;8.468;2023-03-14T00:41:08;11.10;99.90
22065;DHT22;11197;53.110;8.468;2023-03-14T00:43:34;11.10;99.90
22065;DHT22;11197;53.110;8.468;2023-03-14T00:46:01;11.10;99.90
22065;DHT22;11197;53.110;8.468;2023-03-14T00:48:30;11.10;99.90
22065;DHT22;11197;53.110;8.468;2023-03-14T00:50:56;11.10;99.90
22065;DHT22;11197;53.110;8.468;2023-03-14T00:53:22;11.10;99.90
22065;DHT22;11197;53.110;8.468;2023-03-14T00:55:48;11.10;99.90
22065;DHT22;11197;53.110;8.468;2023-03-14T00:58:15;11.10;99.90
22065;DHT22;11197;53.110;8.468;2023-03-14T01:00:42;11.10;99.90
22065;DHT22;11197;53.110;8.468;2023-03-14T01:03:08;11.10;99.90
22065;DHT22;11197;53.110;8.468;2023-03-14T01:05:34;11.10;99.90
22065;DHT22;11197;53.110;8.468;2023-03-14T01:08:00;11.00;99.90
22065;DHT22;11197;53.110;8.468;2023-03-14T01:10:27;11.00;99.90
22065;DHT22;11197;53.110;8.468;2023-03-14T01:12:53;11.10;99.90
22065;DHT22;11197;53.110;8.468;2023-03-14T01:15:19;11.10;99.90
22065;DHT22;11197;53.110;8.468;2023-03-14T01:17:46;11.10;99.90
22065;DHT22;11197;53.110;8.468;2023-03-14T01:20:13;11.20;99.90
22065;DHT22;11197;53.110;8.468;2023-03-14T01:22:40;11.20;99.90
22065;DHT22;11197;53.110;8.468;2023-03-14T01:25:08;11.20;99.90
22065;DHT22;11197;53.110;8.468;2023-03-14T01:27:34;11.20;99.90
22065;DHT22;11197;53.110;8.468;2023-03-14T01:30:00;11.20;99.90
22065;DHT22;11197;53.110;8.468;2023-03-14T01:32:26;11.20;99.90
22065;DHT22;11197;53.110;8.468;2023-03-14T01:34:52;11.20;99.90
22065;DHT22;11197;53.110;8.468;2023-03-14T01:37:18;11.30;99.90
22065;DHT22;11197;53.110;8.468;2023-03-14T01:39:46;11.30;99.90
22065;DHT22;11197;53.110;8.468;2023-03-14T01:42:12;11.30;99.90
22065;DHT22;11197;53.110;8.468;2023-03-14T01:47:20;11.30;99.90
22065;DHT22;11197;53.110;8.468;2023-03-14T01:49:59;11.30;99.90
22065;DHT22;11197;53.110;8.468;2023-03-14T01:52:28;11.30;99.90
22065;DHT22;11197;53.110;8.468;2023-03-14T01:55:14;11.30;99.90
22065;DHT22;11197;53.110;8.468;2023-03-14T01:57:50;11.40;99.90
22065;DHT22;11197;53.110;8.468;2023-03-14T02:00:20;11.40;99.90
22065;DHT22;11197;53.110;8.468;2023-03-14T02:02:51;11.30;99.90
22065;DHT22;11197;53.110;8.468;2023-03-14T02:05:23;11.40;99.90
22065;DHT22;11197;53.110;8.468;2023-03-14T02:07:59;11.40;99.90
22065;DHT22;11197;53.110;8.468;2023-03-14T02:10:37;11.30;99.90
22065;DHT22;11197;53.110;8.468;2023-03-14T02:13:05;11.30;99.90
22065;DHT22;11197;53.110;8.468;2023-03-14T02:15:57;11.40;99.90
22065;DHT22;11197;53.110;8.468;2023-03-14T02:18:42;11.30;99.90
22065;DHT22;11197;53.110;8.468;2023-03-14T02:21:42;11.40;99.90
22065;DHT22;11197;53.110;8.468;2023-03-14T02:24:35;11.40;99.90
22065;DHT22;11197;53.110;8.468;2023-03-14T02:27:13;11.30;99.90
22065;DHT22;11197;53.110;8.468;2023-03-14T02:30:00;11.40;99.90
22065;DHT22;11197;53.110;8.468;2023-03-14T02:32:30;11.40;99.90
22065;DHT22;11197;53.110;8.468;2023-03-14T02:34:58;11.40;99.90
22065;DHT22;11197;53.110;8.468;2023-03-14T02:37:53;11.40;99.90
22065;DHT22;11197;53.110;8.468;2023-03-14T02:40:22;11.40;99.90
22065;DHT22;11197;53.110;8.468;2023-03-14T02:42:51;11.40;99.90
22065;DHT22;11197;53.110;8.468;2023-03-14T02:47:49;11.40;99.90
22065;DHT22;11197;53.110;8.468;2023-03-14T02:50:20;11.40;99.90
22065;DHT22;11197;53.110;8.468;2023-03-14T02:52:47;11.50;99.90
22065;DHT22;11197;53.110;8.468;2023-03-14T02:55:14;11.40;99.90
22065;DHT22;11197;53.110;8.468;2023-03-14T02:57:43;11.40;99.90
22065;DHT22;11197;53.110;8.468;2023-03-14T03:00:09;11.50;99.90
22065;DHT22;11197;53.110;8.468;2023-03-14T03:02:37;11.50;99.90
22065;DHT22;11197;53.110;8.468;2023-03-14T03:05:03;11.50;99.90
22065;DHT22;11197;53.110;8.468;2023-03-14T03:07:29;11.40;99.90
22065;DHT22;11197;53.110;8.468;2023-03-14T03:09:56;11.40;99.90
22065;DHT22;11197;53.110;8.468;2023-03-14T03:12:21;11.40;99.90
22065;DHT22;11197;53.110;8.468;2023-03-14T03:14:48;11.40;99.90
22065;DHT22;11197;53.110;8.468;2023-03-14T03:17:14;11.40;99.90
22065;DHT22;11197;53.110;8.468;2023-03-14T03:19:40;11.40;99.90
22065;DHT22;11197;53.110;8.468;2023-03-14T03:22:07;11.40;99.90
22065;DHT22;11197;53.110;8.468;2023-03-14T03:24:32;11.30;99.90
22065;DHT22;11197;53.110;8.468;2023-03-14T03:27:00;11.30;99.90
22065;DHT22;11197;53.110;8.468;2023-03-14T03:29:26;11.30;99.90
22065;DHT22;11197;53.110;8.468;2023-03-14T03:31:53;11.40;99.90
22065;DHT22;11197;53.110;8.468;2023-03-14T03:34:19;11.30;99.90
22065;DHT22;11197;53.110;8.468;2023-03-14T03:36:49;11.30;99.90
22065;DHT22;11197;53.110;8.468;2023-03-14T03:39:18;11.30;99.90
22065;DHT22;11197;53.110;8.468;2023-03-14T03:41:46;11.30;99.90
22065;DHT22;11197;53.110;8.468;2023-03-14T03:44:12;11.20;99.90
22065;DHT22;11197;53.110;8.468;2023-03-14T03:46:39;11.10;99.90
22065;DHT22;11197;53.110;8.468;2023-03-14T03:49:07;11.10;99.90
22065;DHT22;11197;53.110;8.468;2023-03-14T03:51:33;11.00;99.90
22065;DHT22;11197;53.110;8.468;2023-03-14T03:53:59;11.00;99.90
22065;DHT22;11197;53.110;8.468;2023-03-14T03:56:31;11.00;99.90
22065;DHT22;11197;53.110;8.468;2023-03-14T03:58:57;10.90;99.90
22065;DHT22;11197;53.110;8.468;2023-03-14T04:01:23;10.90;99.90
22065;DHT22;11197;53.110;8.468;2023-03-14T04:03:52;10.90;99.90
22065;DHT22;11197;53.110;8.468;2023-03-14T04:06:19;10.80;99.90
22065;DHT22;11197;53.110;8.468;2023-03-14T04:08:46;10.80;99.90
22065;DHT22;11197;53.110;8.468;2023-03-14T04:11:26;10.80;99.90
22065;DHT22;11197;53.110;8.468;2023-03-14T04:14:23;10.80;99.90
22065;DHT22;11197;53.110;8.468;2023-03-14T04:16:58;10.70;99.90
22065;DHT22;11197;53.110;8.468;2023-03-14T04:19:24;10.70;99.90
22065;DHT22;11197;53.110;8.468;2023-03-14T04:21:53;10.70;99.90
22065;DHT22;11197;53.110;8.468;2023-03-14T04:24:20;10.60;99.90
22065;DHT22;11197;53.110;8.468;2023-03-14T04:26:48;10.60;99.90
22065;DHT22;11197;53.110;8.468;2023-03-14T04:29:14;10.60;99.90
22065;DHT22;11197;53.110;8.468;2023-03-14T04:31:42;10.50;99.90
22065;DHT22;11197;53.110;8.468;2023-03-14T04:34:09;10.60;99.90
22065;DHT22;11197;53.110;8.468;2023-03-14T04:36:40;10.60;99.90
22065;DHT22;11197;53.110;8.468;2023-03-14T04:39:13;10.60;99.90
22065;DHT22;11197;53.110;8.468;2023-03-14T04:41:45;10.60;99.90
22065;DHT22;11197;53.110;8.468;2023-03-14T04:44:12;10.60;99.90
22065;DHT22;11197;53.110;8.468;2023-03-14T04:46:38;10.60;99.90
22065;DHT22;11197;53.110;8.468;2023-03-14T04:49:06;10.60;99.90
22065;DHT22;11197;53.110;8.468;2023-03-14T04:51:32;10.60;99.90
22065;DHT22;11197;53.110;8.468;2023-03-14T04:53:58;10.60;99.90
22065;DHT22;11197;53.110;8.468;2023-03-14T04:56:24;10.60;99.90
22065;DHT22;11197;53.110;8.468;2023-03-14T04:58:51;10.60;99.90
22065;DHT22;11197;53.110;8.468;2023-03-14T05:01:19;10.50;99.90
22065;DHT22;11197;53.110;8.468;2023-03-14T05:04:05;10.50;99.90
22065;DHT22;11197;53.110;8.468;2023-03-14T05:07:02;10.50;99.90
22065;DHT22;11197;53.110;8.468;2023-03-14T05:09:45;10.50;99.90
22065;DHT22;11197;53.110;8.468;2023-03-14T05:12:30;10.50;99.90
22065;DHT22;11197;53.110;8.468;2023-03-14T05:15:04;10.50;99.90
22065;DHT22;11197;53.110;8.468;2023-03-14T05:18:02;10.40;99.90
22065;DHT22;11197;53.110;8.468;2023-03-14T05:20:50;10.40;99.90
22065;DHT22;11197;53.110;8.468;2023-03-14T05:23:35;10.40;99.90
22065;DHT22;11197;53.110;8.468;2023-03-14T05:26:10;10.40;99.90
22065;DHT22;11197;53.110;8.468;2023-03-14T05:28:54;10.40;99.90
22065;DHT22;11197;53.110;8.468;2023-03-14T05:31:36;10.40;99.90
22065;DHT22;11197;53.110;8.468;2023-03-14T05:34:28;10.30;99.90
22065;DHT22;11197;53.110;8.468;2023-03-14T05:37:12;10.30;99.90
22065;DHT22;11197;53.110;8.468;2023-03-14T05:39:53;10.30;99.90
22065;DHT22;11197;53.110;8.468;2023-03-14T05:42:34;10.30;99.90
22065;DHT22;11197;53.110;8.468;2023-03-14T05:45:10;10.30;99.90
22065;DHT22;11197;53.110;8.468;2023-03-14T05:47:53;10.30;99.90
22065;DHT22;11197;53.110;8.468;2023-03-14T05:50:29;10.30;99.90
22065;DHT22;11197;53.110;8.468;2023-03-14T05:53:14;10.30;99.90
22065;DHT22;11197;53.110;8.468;2023-03-14T05:56:18;10.20;99.90
22065;DHT22;11197;53.110;8.468;2023-03-14T05:59:04;10.30;99.90
22065;DHT22;11197;53.110;8.468;2023-03-14T06:01:41;10.30;99.90
22065;DHT22;11197;53.110;8.468;2023-03-14T06:04:13;10.30;99.90
22065;DHT22;11197;53.110;8.468;2023-03-14T06:06:39;10.30;99.90
22065;DHT22;11197;53.110;8.468;2023-03-14T06:09:06;10.30;99.90
22065;DHT22;11197;53.110;8.468;2023-03-14T06:11:35;10.30;99.90
22065;DHT22;11197;53.110;8.468;2023-03-14T06:14:05;10.30;99.90
22065;DHT22;11197;53.110;8.468;2023-03-14T06:16:31;10.30;99.90
22065;DHT22;11197;53.110;8.468;2023-03-14T06:18:58;10.20;99.90
22065;DHT22;11197;53.110;8.468;2023-03-14T06:21:25;10.20;99.90
22065;DHT22;11197;53.110;8.468;2023-03-14T06:23:51;10.30;99.90
22065;DHT22;11197;53.110;8.468;2023-03-14T06:26:18;10.30;99.90
22065;DHT22;11197;53.110;8.468;2023-03-14T06:28:44;10.20;99.90
22065;DHT22;11197;53.110;8.468;2023-03-14T06:31:10;10.20;99.90
22065;DHT22;11197;53.110;8.468;2023-03-14T06:33:44;10.20;99.90
22065;DHT22;11197;53.110;8.468;2023-03-14T06:36:10;10.20;99.90
22065;DHT22;11197;53.110;8.468;2023-03-14T06:38:39;10.20;99.90
22065;DHT22;11197;53.110;8.468;2023-03-14T06:41:06;10.20;99.90
22065;DHT22;11197;53.110;8.468;2023-03-14T06:43:37;10.20;99.90
22065;DHT22;11197;53.110;8.468;2023-03-14T06:46:05;10.20;99.90
22065;DHT22;11197;53.110;8.468;2023-03-14T06:48:33;10.30;99.90
22065;DHT22;11197;53.110;8.468;2023-03-14T06:50:59;10.30;99.90
22065;DHT22;11197;53.110;8.468;2023-03-14T06:53:25;10.30;99.90
22065;DHT22;11197;53.110;8.468;2023-03-14T06:55:52;10.30;99.90
22065;DHT22;11197;53.110;8.468;2023-03-14T06:58:18;10.30;99.90
22065;DHT22;11197;53.110;8.468;2023-03-14T07:00:45;10.30;99.90
22065;DHT22;11197;53.110;8.468;2023-03-14T07:03:15;10.30;99.90
22065;DHT22;11197;53.110;8.468;2023-03-14T07:05:44;10.30;99.90
22065;DHT22;11197;53.110;8.468;2023-03-14T07:08:10;10.30;99.90
22065;DHT22;11197;53.110;8.468;2023-03-14T07:10:36;10.30;99.90
22065;DHT22;11197;53.110;8.468;2023-03-14T07:13:01;10.40;99.90
22065;DHT22;11197;53.110;8.468;2023-03-14T07:15:31;10.40;99.90
22065;DHT22;11197;53.110;8.468;2023-03-14T07:18:02;10.40;99.90
22065;DHT22;11197;53.110;8.468;2023-03-14T07:20:29;10.50;99.90
22065;DHT22;11197;53.110;8.468;2023-03-14T07:22:58;10.50;99.90
22065;DHT22;11197;53.110;8.468;2023-03-14T07:25:35;10.50;99.90
22065;DHT22;11197;53.110;8.468;2023-03-14T07:28:01;10.60;99.90
22065;DHT22;11197;53.110;8.468;2023-03-14T07:30:28;10.60;99.90
22065;DHT22;11197;53.110;8.468;2023-03-14T07:32:56;10.60;99.90
22065;DHT22;11197;53.110;8.468;2023-03-14T07:35:23;10.60;99.90
22065;DHT22;11197;53.110;8.468;2023-03-14T07:37:49;10.60;99.90
22065;DHT22;11197;53.110;8.468;2023-03-14T07:40:18;10.60;99.90
22065;DHT22;11197;53.110;8.468;2023-03-14T07:42:44;10.60;99.90
22065;DHT22;11197;53.110;8.468;2023-03-14T07:45:15;10.60;99.90
22065;DHT22;11197;53.110;8.468;2023-03-14T07:47:41;10.70;99.90
22065;DHT22;11197;53.110;8.468;2023-03-14T07:50:07;10.70;99.90
22065;DHT22;11197;53.110;8.468;2023-03-14T07:52:33;10.70;99.90
22065;DHT22;11197;53.110;8.468;2023-03-14T07:54:59;10.60;99.90
22065;DHT22;11197;53.110;8.468;2023-03-14T07:57:25;10.60;99.90
22065;DHT22;11197;53.110;8.468;2023-03-14T07:59:54;10.70;99.90
22065;DHT22;11197;53.110;8.468;2023-03-14T08:02:20;10.60;99.90
22065;DHT22;11197;53.110;8.468;2023-03-14T08:04:47;10.60;99.90
22065;DHT22;11197;53.110;8.468;2023-03-14T08:07:13;10.60;99.90
22065;DHT22;11197;53.110;8.468;2023-03-14T08:09:39;10.60;99.90
22065;DHT22;11197;53.110;8.468;2023-03-14T08:12:05;10.60;99.90
22065;DHT22;11197;53.110;8.468;2023-03-14T08:14:31;10.60;99.90
22065;DHT22;11197;53.110;8.468;2023-03-14T08:16:57;10.60;99.90
22065;DHT22;11197;53.110;8.468;2023-03-14T08:19:23;10.60;99.90
22065;DHT22;11197;53.110;8.468;2023-03-14T08:21:49;10.60;99.90
22065;DHT22;11197;53.110;8.468;2023-03-14T08:24:14;10.60;99.90
22065;DHT22;11197;53.110;8.468;2023-03-14T08:26:40;10.50;99.90
22065;DHT22;11197;53.110;8.468;2023-03-14T08:29:06;10.60;99.90
22065;DHT22;11197;53.110;8.468;2023-03-14T08:31:34;10.50;99.90
22065;DHT22;11197;53.110;8.468;2023-03-14T08:34:01;10.50;99.90
22065;DHT22;11197;53.110;8.468;2023-03-14T08:36:27;10.50;99.90
22065;DHT22;11197;53.110;8.468;2023-03-14T08:38:53;10.40;99.90
22065;DHT22;11197;53.110;8.468;2023-03-14T08:41:20;10.40;99.90
22065;DHT22;11197;53.110;8.468;2023-03-14T08:43:45;10.40;99.90
22065;DHT22;11197;53.110;8.468;2023-03-14T08:46:11;10.40;99.90
22065;DHT22;11197;53.110;8.468;2023-03-14T08:48:38;10.40;99.90
22065;DHT22;11197;53.110;8.468;2023-03-14T08:51:14;10.40;99.90
22065;DHT22;11197;53.110;8.468;2023-03-14T08:53:40;10.30;99.90
22065;DHT22;11197;53.110;8.468;2023-03-14T08:56:07;10.30;99.90
22065;DHT22;11197;53.110;8.468;2023-03-14T08:58:36;9.80;99.90
22065;DHT22;11197;53.110;8.468;2023-03-14T09:01:05;9.40;99.90
22065;DHT22;11197;53.110;8.468;2023-03-14T09:03:31;9.10;99.90
22065;DHT22;11197;53.110;8.468;2023-03-14T09:06:02;8.80;99.90
22065;DHT22;11197;53.110;8.468;2023-03-14T09:08:28;8.50;99.90
22065;DHT22;11197;53.110;8.468;2023-03-14T09:10:54;8.40;99.90
22065;DHT22;11197;53.110;8.468;2023-03-14T09:13:20;8.20;99.90
22065;DHT22;11197;53.110;8.468;2023-03-14T09:15:54;7.90;99.90
22065;DHT22;11197;53.110;8.468;2023-03-14T09:18:20;7.80;99.90
22065;DHT22;11197;53.110;8.468;2023-03-14T09:20:46;7.70;99.90
22065;DHT22;11197;53.110;8.468;2023-03-14T09:23:12;7.50;99.90
22065;DHT22;11197;53.110;8.468;2023-03-14T09:25:38;7.20;99.90
22065;DHT22;11197;53.110;8.468;2023-03-14T09:28:04;7.00;99.90
22065;DHT22;11197;53.110;8.468;2023-03-14T09:30:30;6.70;99.90
22065;DHT22;11197;53.110;8.468;2023-03-14T09:32:56;6.50;99.90
22065;DHT22;11197;53.110;8.468;2023-03-14T09:35:23;6.30;99.90
22065;DHT22;11197;53.110;8.468;2023-03-14T09:37:49;6.20;99.90
22065;DHT22;11197;53.110;8.468;2023-03-14T09:40:19;6.10;99.90
22065;DHT22;11197;53.110;8.468;2023-03-14T09:42:51;5.90;99.90
22065;DHT22;11197;53.110;8.468;2023-03-14T09:45:26;5.70;99.90
22065;DHT22;11197;53.110;8.468;2023-03-14T09:47:53;5.60;99.90
22065;DHT22;11197;53.110;8.468;2023-03-14T09:50:20;5.60;99.90
22065;DHT22;11197;53.110;8.468;2023-03-14T09:52:51;5.50;99.90
22065;DHT22;11197;53.110;8.468;2023-03-14T09:55:21;5.50;99.90
22065;DHT22;11197;53.110;8.468;2023-03-14T09:57:49;5.50;99.90
22065;DHT22;11197;53.110;8.468;2023-03-14T10:00:19;5.50;99.90
22065;DHT22;11197;53.110;8.468;2023-03-14T10:05:37;5.50;99.90
22065;DHT22;11197;53.110;8.468;2023-03-14T10:08:03;5.60;99.90
22065;DHT22;11197;53.110;8.468;2023-03-14T10:10:31;5.70;99.90
22065;DHT22;11197;53.110;8.468;2023-03-14T10:12:58;5.70;99.90
22065;DHT22;11197;53.110;8.468;2023-03-14T10:15:31;5.70;99.90
22065;DHT22;11197;53.110;8.468;2023-03-14T10:18:00;5.70;99.90
22065;DHT22;11197;53.110;8.468;2023-03-14T10:20:35;5.60;99.90
22065;DHT22;11197;53.110;8.468;2023-03-14T10:23:22;5.60;99.90
22065;DHT22;11197;53.110;8.468;2023-03-14T10:26:24;5.60;99.90
22065;DHT22;11197;53.110;8.468;2023-03-14T10:29:00;5.60;99.90
22065;DHT22;11197;53.110;8.468;2023-03-14T10:32:05;5.60;99.90
22065;DHT22;11197;53.110;8.468;2023-03-14T10:34:35;5.60;99.90
22065;DHT22;11197;53.110;8.468;2023-03-14T10:37:18;5.60;99.90
22065;DHT22;11197;53.110;8.468;2023-03-14T10:39:52;5.60;99.90
22065;DHT22;11197;53.110;8.468;2023-03-14T10:42:21;5.60;99.90
22065;DHT22;11197;53.110;8.468;2023-03-14T10:44:53;5.60;99.90
22065;DHT22;11197;53.110;8.468;2023-03-14T10:47:23;5.60;99.90
22065;DHT22;11197;53.110;8.468;2023-03-14T10:49:50;5.70;99.90
22065;DHT22;11197;53.110;8.468;2023-03-14T10:52:24;5.60;99.90
22065;DHT22;11197;53.110;8.468;2023-03-14T10:54:57;5.60;99.90
22065;DHT22;11197;53.110;8.468;2023-03-14T10:57:24;5.60;99.90
22065;DHT22;11197;53.110;8.468;2023-03-14T10:59:51;5.60;99.90
22065;DHT22;11197;53.110;8.468;2023-03-14T11:02:27;5.70;99.90
22065;DHT22;11197;53.110;8.468;2023-03-14T11:08:15;5.80;99.90
22065;DHT22;11197;53.110;8.468;2023-03-14T11:10:44;5.90;99.90
22065;DHT22;11197;53.110;8.468;2023-03-14T11:13:44;5.80;99.90
22065;DHT22;11197;53.110;8.468;2023-03-14T11:27:39;6.20;99.90
22065;DHT22;11197;53.110;8.468;2023-03-14T11:33:14;6.30;99.90
22065;DHT22;11197;53.110;8.468;2023-03-14T11:35:54;6.30;99.90
22065;DHT22;11197;53.110;8.468;2023-03-14T11:38:28;6.30;99.90
22065;DHT22;11197;53.110;8.468;2023-03-14T11:40:57;6.20;99.90
22065;DHT22;11197;53.110;8.468;2023-03-14T11:43:32;6.20;99.90
22065;DHT22;11197;53.110;8.468;2023-03-14T11:46:49;6.20;99.90
22065;DHT22;11197;53.110;8.468;2023-03-14T11:51:39;6.20;99.90
22065;DHT22;11197;53.110;8.468;2023-03-14T11:56:59;6.30;99.90
22065;DHT22;11197;53.110;8.468;2023-03-14T12:00:12;6.30;99.90
22065;DHT22;11197;53.110;8.468;2023-03-14T12:02:35;6.30;99.90
22065;DHT22;11197;53.110;8.468;2023-03-14T12:05:31;6.30;99.90
22065;DHT22;11197;53.110;8.468;2023-03-14T12:13:08;6.50;99.90
22065;DHT22;11197;53.110;8.468;2023-03-14T12:15:39;6.60;99.90
22065;DHT22;11197;53.110;8.468;2023-03-14T12:18:53;6.60;99.90
22065;DHT22;11197;53.110;8.468;2023-03-14T12:21:12;6.60;99.90
22065;DHT22;11197;53.110;8.468;2023-03-14T12:26:26;6.60;99.90
22065;DHT22;11197;53.110;8.468;2023-03-14T12:29:11;6.50;99.90
22065;DHT22;11197;53.110;8.468;2023-03-14T12:31:48;6.60;99.90
22065;DHT22;11197;53.110;8.468;2023-03-14T12:41:48;6.60;99.90
22065;DHT22;11197;53.110;8.468;2023-03-14T12:49:40;6.60;99.90
22065;DHT22;11197;53.110;8.468;2023-03-14T12:52:14;6.50;99.90
22065;DHT22;11197;53.110;8.468;2023-03-14T13:00:29;6.60;99.90
22065;DHT22;11197;53.110;8.468;2023-03-14T13:02:49;6.60;99.90
22065;DHT22;11197;53.110;8.468;2023-03-14T13:05:19;6.60;99.90
22065;DHT22;11197;53.110;8.468;2023-03-14T13:10:24;6.70;99.90
22065;DHT22;11197;53.110;8.468;2023-03-14T13:15:23;6.60;99.90
22065;DHT22;11197;53.110;8.468;2023-03-14T13:17:51;6.60;99.90
22065;DHT22;11197;53.110;8.468;2023-03-14T13:20:29;6.60;99.90
22065;DHT22;11197;53.110;8.468;2023-03-14T13:22:56;6.50;99.90
22065;DHT22;11197;53.110;8.468;2023-03-14T13:25:22;6.50;99.90
22065;DHT22;11197;53.110;8.468;2023-03-14T13:27:51;6.50;99.90
22065;DHT22;11197;53.110;8.468;2023-03-14T13:30:27;6.50;99.90
22065;DHT22;11197;53.110;8.468;2023-03-14T13:32:55;6.60;99.90
22065;DHT22;11197;53.110;8.468;2023-03-14T13:35:28;6.60;99.90
22065;DHT22;11197;53.110;8.468;2023-03-14T13:38:02;6.60;99.90
22065;DHT22;11197;53.110;8.468;2023-03-14T13:40:34;6.60;99.90
22065;DHT22;11197;53.110;8.468;2023-03-14T13:46:05;6.70;99.90
22065;DHT22;11197;53.110;8.468;2023-03-14T13:48:34;6.70;99.90
22065;DHT22;11197;53.110;8.468;2023-03-14T13:51:05;6.60;99.90
22065;DHT22;11197;53.110;8.468;2023-03-14T13:53:44;6.60;99.90
22065;DHT22;11197;53.110;8.468;2023-03-14T13:56:10;6.60;99.90
22065;DHT22;11197;53.110;8.468;2023-03-14T13:58:38;6.50;99.90
22065;DHT22;11197;53.110;8.468;2023-03-14T14:03:34;6.50;99.90
22065;DHT22;11197;53.110;8.468;2023-03-14T14:06:10;6.50;99.90
22065;DHT22;11197;53.110;8.468;2023-03-14T14:08:42;6.50;99.90
22065;DHT22;11197;53.110;8.468;2023-03-14T14:11:13;6.50;99.90
22065;DHT22;11197;53.110;8.468;2023-03-14T14:13:42;6.60;99.90
22065;DHT22;11197;53.110;8.468;2023-03-14T14:16:08;6.60;99.90
22065;DHT22;11197;53.110;8.468;2023-03-14T14:18:36;6.60;99.90
22065;DHT22;11197;53.110;8.468;2023-03-14T14:21:02;6.60;99.90
22065;DHT22;11197;53.110;8.468;2023-03-14T14:23:29;6.60;99.90
22065;DHT22;11197;53.110;8.468;2023-03-14T14:25:58;6.60;99.90
22065;DHT22;11197;53.110;8.468;2023-03-14T14:28:27;6.60;99.90
22065;DHT22;11197;53.110;8.468;2023-03-14T14:31:26;6.60;99.90
22065;DHT22;11197;53.110;8.468;2023-03-14T14:33:56;6.60;99.90
22065;DHT22;11197;53.110;8.468;2023-03-14T14:36:26;6.50;99.90
22065;DHT22;11197;53.110;8.468;2023-03-14T14:39:03;6.50;99.90
22065;DHT22;11197;53.110;8.468;2023-03-14T14:41:35;6.50;99.90
22065;DHT22;11197;53.110;8.468;2023-03-14T14:44:03;6.50;99.90
22065;DHT22;11197;53.110;8.468;2023-03-14T14:46:32;6.50;99.90
22065;DHT22;11197;53.110;8.468;2023-03-14T14:49:14;6.50;99.90
22065;DHT22;11197;53.110;8.468;2023-03-14T14:51:48;6.60;99.90
22065;DHT22;11197;53.110;8.468;2023-03-14T14:54:21;6.60;99.90
22065;DHT22;11197;53.110;8.468;2023-03-14T14:57:02;6.60;99.90
22065;DHT22;11197;53.110;8.468;2023-03-14T14:59:28;6.60;99.90
22065;DHT22;11197;53.110;8.468;2023-03-14T15:01:59;6.60;99.90
22065;DHT22;11197;53.110;8.468;2023-03-14T15:04:25;6.70;99.90
22065;DHT22;11197;53.110;8.468;2023-03-14T15:06:52;6.70;99.90
22065;DHT22;11197;53.110;8.468;2023-03-14T15:09:21;6.70;99.90
22065;DHT22;11197;53.110;8.468;2023-03-14T15:11:48;6.70;99.90
22065;DHT22;11197;53.110;8.468;2023-03-14T15:14:15;6.70;99.90
22065;DHT22;11197;53.110;8.468;2023-03-14T15:16:41;6.70;99.90
22065;DHT22;11197;53.110;8.468;2023-03-14T15:19:16;6.80;99.90
22065;DHT22;11197;53.110;8.468;2023-03-14T15:21:42;7.20;99.90
22065;DHT22;11197;53.110;8.468;2023-03-14T15:24:09;7.30;99.90
22065;DHT22;11197;53.110;8.468;2023-03-14T15:26:35;7.30;99.90
22065;DHT22;11197;53.110;8.468;2023-03-14T15:29:01;7.20;99.90
22065;DHT22;11197;53.110;8.468;2023-03-14T15:31:27;7.10;99.90
22065;DHT22;11197;53.110;8.468;2023-03-14T15:33:52;7.00;99.90
22065;DHT22;11197;53.110;8.468;2023-03-14T15:36:27;7.00;99.90
22065;DHT22;11197;53.110;8.468;2023-03-14T15:38:54;6.90;99.90
22065;DHT22;11197;53.110;8.468;2023-03-14T15:41:21;6.90;99.90
22065;DHT22;11197;53.110;8.468;2023-03-14T15:43:48;6.90;99.90
22065;DHT22;11197;53.110;8.468;2023-03-14T15:46:14;6.90;99.90
22065;DHT22;11197;53.110;8.468;2023-03-14T15:48:43;6.90;99.90
22065;DHT22;11197;53.110;8.468;2023-03-14T15:51:09;6.80;99.90
22065;DHT22;11197;53.110;8.468;2023-03-14T15:53:35;6.90;99.90
22065;DHT22;11197;53.110;8.468;2023-03-14T15:56:15;6.80;99.90
22065;DHT22;11197;53.110;8.468;2023-03-14T15:58:41;6.80;99.90
22065;DHT22;11197;53.110;8.468;2023-03-14T16:01:08;6.80;99.90
22065;DHT22;11197;53.110;8.468;2023-03-14T16:03:36;6.70;99.90
22065;DHT22;11197;53.110;8.468;2023-03-14T16:06:03;6.80;99.90
22065;DHT22;11197;53.110;8.468;2023-03-14T16:08:29;6.70;99.90
22065;DHT22;11197;53.110;8.468;2023-03-14T16:10:57;6.80;99.90
22065;DHT22;11197;53.110;8.468;2023-03-14T16:13:24;6.70;99.90
22065;DHT22;11197;53.110;8.468;2023-03-14T16:15:58;6.70;99.90
22065;DHT22;11197;53.110;8.468;2023-03-14T16:18:27;6.60;99.90
22065;DHT22;11197;53.110;8.468;2023-03-14T16:20:58;6.60;99.90
22065;DHT22;11197;53.110;8.468;2023-03-14T16:23:28;6.60;99.90
22065;DHT22;11197;53.110;8.468;2023-03-14T16:25:54;6.50;99.90
22065;DHT22;11197;53.110;8.468;2023-03-14T16:28:21;6.50;99.90
22065;DHT22;11197;53.110;8.468;2023-03-14T16:30:47;6.50;99.90
22065;DHT22;11197;53.110;8.468;2023-03-14T16:33:13;6.50;99.90
22065;DHT22;11197;53.110;8.468;2023-03-14T16:35:40;6.50;99.90
22065;DHT22;11197;53.110;8.468;2023-03-14T16:38:06;6.40;99.90
22065;DHT22;11197;53.110;8.468;2023-03-14T16:40:32;6.40;99.90
22065;DHT22;11197;53.110;8.468;2023-03-14T16:42:58;6.40;99.90
22065;DHT22;11197;53.110;8.468;2023-03-14T16:45:24;6.40;99.90
22065;DHT22;11197;53.110;8.468;2023-03-14T16:47:50;6.40;99.90
22065;DHT22;11197;53.110;8.468;2023-03-14T16:50:16;6.30;99.90
22065;DHT22;11197;53.110;8.468;2023-03-14T16:52:42;6.30;99.90
22065;DHT22;11197;53.110;8.468;2023-03-14T16:55:09;6.30;99.90
22065;DHT22;11197;53.110;8.468;2023-03-14T16:57:35;6.30;99.90
22065;DHT22;11197;53.110;8.468;2023-03-14T17:00:01;6.10;99.90
22065;DHT22;11197;53.110;8.468;2023-03-14T17:02:27;6.10;99.90
22065;DHT22;11197;53.110;8.468;2023-03-14T17:04:53;6.00;99.90
22065;DHT22;11197;53.110;8.468;2023-03-14T17:07:18;5.80;99.90